Wickham Spur, Iowa
Current Conditions -  °F | °C
As of 2:52 PM on Tuesday 21 Oct 2014 (Local Time) from KSUX Reporting Station
Clear Clear  
Wind Chill: 75°   Ceiling: Unl
Heat Index: 75°   Visibility: 10mi
Dew Point: 43°   Wind: 12mph
Humidity: 32%   Direction: 160°SSE
Pressure: 30.02"   Gusts: 17mph
Location:  42.4941°N, 96.3985°W
Report Text: KSUX 211952Z 16010G15KT 10SM CLR 24/06 A3002 RMK AO2 SLP167 T02390061
Loading
Personal Weather Stations






























Interactive Weather Map
Tropical Storm Tracking
New forecast layout! Learn more

10-Day Weather Forecast

Advertisements
Track Severe Weather on mobile